createdAt,value
2023-11-01T00:01:20.554Z,85.42
2023-11-01T00:03:48.965Z,85.75
2023-11-01T00:06:17.341Z,85.98
2023-11-01T00:08:46.927Z,85.56
2023-11-01T00:11:15.373Z,86.00
2023-11-01T00:13:43.560Z,86.37
2023-11-01T00:16:11.966Z,86.29
2023-11-01T00:18:40.568Z,86.84
2023-11-01T00:21:09.047Z,87.33
2023-11-01T00:23:37.310Z,87.52
2023-11-01T00:26:08.524Z,87.68
2023-11-01T00:28:36.860Z,87.92
2023-11-01T00:31:05.440Z,88.35
2023-11-01T00:33:33.750Z,88.30
2023-11-01T00:36:02.116Z,88.61
2023-11-01T00:38:31.490Z,89.06
2023-11-01T00:41:03.813Z,89.56
2023-11-01T00:43:33.732Z,89.60
2023-11-01T00:46:02.139Z,89.43
2023-11-01T00:48:30.361Z,89.56
2023-11-01T00:50:58.627Z,89.40
2023-11-01T00:53:26.951Z,89.35
2023-11-01T00:55:55.183Z,89.26
2023-11-01T00:58:24.022Z,89.13
2023-11-01T01:00:53.839Z,89.16
2023-11-01T01:03:23.370Z,89.02
2023-11-01T01:05:51.684Z,89.09
2023-11-01T01:08:20.005Z,89.47
2023-11-01T01:10:49.564Z,89.01
2023-11-01T01:13:17.814Z,89.35
2023-11-01T01:15:46.147Z,89.33
2023-11-01T01:18:18.875Z,89.51
2023-11-01T01:20:47.324Z,89.26
2023-11-01T01:23:15.843Z,89.62
2023-11-01T01:25:44.509Z,89.58
2023-11-01T01:28:12.683Z,89.56
2023-11-01T01:30:40.901Z,89.52
2023-11-01T01:33:09.155Z,89.99
2023-11-01T01:35:39.588Z,90.15
2023-11-01T01:38:08.035Z,90.15
2023-11-01T01:40:36.305Z,90.05
2023-11-01T01:43:19.272Z,90.15
2023-11-01T01:45:47.896Z,89.99
2023-11-01T01:48:16.261Z,89.65
2023-11-01T01:50:46.141Z,89.80
2023-11-01T01:53:14.747Z,89.83
2023-11-01T01:55:43.781Z,89.70
2023-11-01T01:58:13.035Z,89.76
2023-11-01T02:00:41.415Z,89.25
2023-11-01T02:03:09.764Z,89.26
2023-11-01T02:05:38.430Z,89.68
2023-11-01T02:08:08.709Z,90.02
2023-11-01T02:10:37.031Z,90.04
2023-11-01T02:13:15.679Z,89.95
2023-11-01T02:15:47.338Z,90.00
2023-11-01T02:18:15.982Z,89.58
2023-11-01T02:20:48.818Z,89.70
2023-11-01T02:23:18.589Z,89.68
2023-11-01T02:25:48.268Z,89.65
2023-11-01T02:28:17.141Z,89.50
2023-11-01T02:30:45.546Z,88.96
2023-11-01T02:33:14.306Z,89.36
2023-11-01T02:35:42.581Z,89.60
2023-11-01T02:38:12.626Z,89.07
2023-11-01T02:40:41.142Z,89.44
2023-11-01T02:43:11.158Z,89.31
2023-11-01T02:45:39.609Z,87.41
2023-11-01T02:48:08.829Z,84.85
2023-11-01T02:50:37.339Z,83.44
2023-11-01T02:53:05.701Z,83.09
2023-11-01T02:55:33.917Z,83.91
2023-11-01T02:58:04.467Z,87.21
2023-11-01T03:00:34.192Z,88.32
2023-11-01T03:03:02.634Z,88.47
2023-11-01T03:05:31.341Z,88.46
2023-11-01T03:07:59.592Z,88.18
2023-11-01T03:10:28.009Z,87.31
2023-11-01T03:12:57.436Z,86.89
2023-11-01T03:15:25.682Z,85.74
2023-11-01T03:17:55.402Z,85.02
2023-11-01T03:20:23.748Z,84.44
2023-11-01T03:25:50.956Z,84.35
2023-11-01T03:28:19.353Z,84.29
2023-11-01T03:30:47.686Z,84.93
2023-11-01T03:33:17.592Z,85.43
2023-11-01T03:35:45.961Z,85.92
2023-11-01T03:38:14.299Z,86.22
2023-11-01T03:40:42.551Z,85.93
2023-11-01T03:43:10.738Z,85.85
2023-11-01T03:45:39.204Z,85.99
2023-11-01T03:48:08.371Z,85.72
2023-11-01T03:50:38.046Z,85.63
2023-11-01T03:53:06.407Z,86.22
2023-11-01T03:55:34.552Z,86.14
2023-11-01T03:58:02.923Z,86.17
2023-11-01T04:00:31.116Z,86.10
2023-11-01T04:02:59.642Z,85.65
2023-11-01T04:05:27.902Z,85.09
2023-11-01T04:07:58.107Z,85.00
2023-11-01T04:10:26.371Z,84.19
2023-11-01T04:12:54.833Z,83.02
2023-11-01T04:15:23.629Z,82.04
2023-11-01T04:17:53.379Z,80.34
2023-11-01T04:20:21.652Z,79.43
2023-11-01T04:22:49.867Z,79.78
2023-11-01T04:25:19.546Z,79.12
2023-11-01T04:27:47.796Z,79.14
2023-11-01T04:30:16.929Z,79.03
2023-11-01T04:32:45.689Z,79.33
2023-11-01T04:35:14.192Z,79.35
2023-11-01T04:37:43.856Z,79.96
2023-11-01T04:40:13.594Z,79.91
2023-11-01T04:42:45.674Z,80.14
2023-11-01T04:45:14.618Z,80.12
2023-11-01T04:47:44.276Z,79.81
2023-11-01T04:50:15.077Z,79.85
2023-11-01T04:52:45.324Z,79.34
2023-11-01T04:55:13.820Z,79.42
2023-11-01T04:57:44.452Z,79.39
2023-11-01T05:00:17.703Z,79.33
2023-11-01T05:02:47.436Z,79.52
2023-11-01T05:05:15.938Z,79.59
2023-11-01T05:07:44.683Z,79.46
2023-11-01T05:10:12.942Z,79.80
2023-11-01T05:12:41.213Z,79.65
2023-11-01T05:15:11.927Z,79.96
2023-11-01T05:17:41.684Z,80.17
2023-11-01T05:20:11.682Z,80.51
2023-11-01T05:22:39.868Z,81.06
2023-11-01T05:25:15.015Z,80.19
2023-11-01T05:27:43.565Z,80.37
2023-11-01T05:30:16.803Z,80.37
2023-11-01T05:32:47.790Z,80.23
2023-11-01T05:35:17.503Z,80.47
2023-11-01T05:37:46.053Z,80.56
2023-11-01T05:40:17.924Z,80.56
2023-11-01T05:42:47.741Z,80.46
2023-11-01T05:45:18.961Z,80.51
2023-11-01T05:47:52.460Z,81.01
2023-11-01T05:50:24.966Z,81.56
2023-11-01T05:52:54.917Z,81.98
2023-11-01T05:55:26.720Z,82.08
2023-11-01T05:58:02.384Z,82.02
2023-11-01T06:00:33.111Z,81.75
2023-11-01T06:03:01.693Z,81.57
2023-11-01T06:05:29.985Z,81.63
2023-11-01T06:07:58.244Z,81.85
2023-11-01T06:10:26.502Z,81.55
2023-11-01T06:12:55.118Z,80.89
2023-11-01T06:15:23.440Z,81.18
2023-11-01T06:17:53.526Z,80.92
2023-11-01T06:20:22.212Z,81.12
2023-11-01T06:22:50.929Z,81.14
2023-11-01T06:25:21.374Z,81.31
2023-11-01T06:27:49.768Z,81.77
2023-11-01T06:30:18.537Z,81.64
2023-11-01T06:32:47.139Z,81.40
2023-11-01T06:35:17.465Z,81.35
2023-11-01T06:37:47.738Z,81.62
2023-11-01T06:40:16.549Z,81.36
2023-11-01T06:42:44.753Z,80.76
2023-11-01T06:45:13.819Z,80.43
2023-11-01T06:47:43.603Z,80.07
2023-11-01T06:50:12.210Z,79.95
2023-11-01T06:52:45.944Z,79.81
2023-11-01T06:55:14.648Z,80.07
2023-11-01T06:57:43.001Z,79.87
2023-11-01T07:00:12.273Z,80.11
2023-11-01T07:02:40.606Z,80.21
2023-11-01T07:05:09.215Z,80.25
2023-11-01T07:07:37.487Z,80.41
2023-11-01T07:10:09.813Z,80.33
2023-11-01T07:12:37.872Z,80.84
2023-11-01T07:15:09.223Z,80.65
2023-11-01T07:17:37.630Z,80.88
2023-11-01T07:20:07.044Z,81.41
2023-11-01T07:22:35.305Z,81.41
2023-11-01T07:25:03.924Z,81.23
2023-11-01T07:27:33.623Z,80.66
2023-11-01T07:30:02.081Z,80.87
2023-11-01T07:32:30.591Z,80.41
2023-11-01T07:34:59.556Z,79.48
2023-11-01T07:37:27.789Z,78.43
2023-11-01T07:39:56.039Z,77.80
2023-11-01T07:42:24.231Z,77.27
2023-11-01T07:44:54.232Z,77.20
2023-11-01T07:47:22.546Z,77.66
2023-11-01T07:49:51.082Z,77.42
2023-11-01T07:52:19.685Z,77.26
2023-11-01T07:54:48.043Z,74.66
2023-11-01T07:57:16.256Z,74.57
2023-11-01T07:59:44.520Z,74.73
2023-11-01T08:02:14.256Z,75.89
2023-11-01T08:04:42.717Z,76.94
2023-11-01T08:07:12.242Z,77.50
2023-11-01T08:09:41.328Z,78.03
2023-11-01T08:12:10.253Z,78.07
2023-11-01T08:14:38.504Z,78.14
2023-11-01T08:17:06.760Z,77.93
2023-11-01T08:19:37.253Z,78.09
2023-11-01T08:22:06.009Z,78.58
2023-11-01T08:24:34.271Z,78.79
2023-11-01T08:27:02.670Z,78.55
2023-11-01T08:29:32.288Z,78.76
2023-11-01T08:32:00.558Z,78.80
2023-11-01T08:34:28.827Z,78.54
2023-11-01T08:36:58.369Z,77.89
2023-11-01T08:39:27.040Z,77.74
2023-11-01T08:41:55.269Z,77.22
2023-11-01T08:44:23.773Z,77.58
2023-11-01T08:46:52.128Z,76.97
2023-11-01T08:49:20.376Z,74.46
2023-11-01T08:51:48.791Z,72.16
2023-11-01T08:54:18.363Z,69.23
2023-11-01T08:56:46.629Z,66.94
2023-11-01T08:59:15.023Z,66.04
2023-11-01T09:01:43.462Z,63.55
2023-11-01T09:04:12.120Z,63.04
2023-11-01T09:06:40.340Z,64.01
2023-11-01T09:09:08.641Z,64.85
2023-11-01T09:11:38.358Z,62.99
2023-11-01T09:14:06.883Z,63.10
2023-11-01T09:16:35.261Z,62.93
2023-11-01T09:19:03.402Z,64.16
2023-11-01T09:21:36.925Z,65.51
2023-11-01T09:24:05.985Z,66.82
2023-11-01T09:26:34.502Z,67.76
2023-11-01T09:31:37.372Z,69.74
2023-11-01T09:34:05.802Z,68.45
2023-11-01T09:36:33.980Z,65.52
2023-11-01T09:39:02.239Z,66.23
2023-11-01T09:41:35.634Z,65.73
2023-11-01T09:44:06.010Z,62.00
2023-11-01T09:46:34.714Z,60.54
2023-11-01T09:49:03.362Z,59.42
2023-11-01T09:51:33.511Z,59.60
2023-11-01T09:54:02.567Z,61.12
2023-11-01T09:56:36.736Z,62.70
2023-11-01T09:59:07.202Z,63.23
2023-11-01T10:01:36.959Z,62.98
2023-11-01T10:04:06.286Z,63.29
2023-11-01T10:06:36.352Z,59.46
2023-11-01T10:09:04.941Z,60.19
2023-11-01T10:11:33.522Z,60.80
2023-11-01T10:14:02.312Z,59.58
2023-11-01T10:16:33.184Z,58.48
2023-11-01T10:19:04.461Z,59.13
2023-11-01T10:21:33.177Z,60.10
2023-11-01T10:24:02.384Z,59.98
2023-11-01T10:26:31.766Z,60.49
2023-11-01T10:29:02.029Z,61.04
2023-11-01T10:31:31.695Z,61.59
2023-11-01T10:34:00.646Z,61.96
2023-11-01T10:36:29.001Z,61.33
2023-11-01T10:38:57.672Z,59.58
2023-11-01T10:41:28.119Z,58.10
2023-11-01T10:43:57.843Z,58.78
2023-11-01T10:46:27.124Z,59.25
2023-11-01T10:48:57.242Z,59.45
2023-11-01T10:51:26.229Z,59.32
2023-11-01T10:53:55.426Z,61.58
2023-11-01T10:56:23.925Z,61.29
2023-11-01T10:58:54.928Z,62.96
2023-11-01T11:01:29.815Z,63.83
2023-11-01T11:04:13.947Z,63.03
2023-11-01T11:06:51.817Z,63.48
2023-11-01T11:09:23.560Z,63.51
2023-11-01T11:12:15.295Z,63.03
2023-11-01T11:14:44.925Z,63.35
2023-11-01T11:17:16.144Z,62.38
2023-11-01T11:20:14.932Z,63.09
2023-11-01T11:23:15.431Z,62.64
2023-11-01T11:25:53.882Z,63.27
2023-11-01T11:28:49.733Z,63.08
2023-11-01T11:31:25.138Z,63.32
2023-11-01T11:34:13.906Z,62.74
2023-11-01T11:37:09.658Z,62.51
2023-11-01T11:40:02.883Z,62.93
2023-11-01T11:42:52.692Z,62.72
2023-11-01T11:45:34.350Z,63.01
2023-11-01T11:48:04.905Z,63.40
2023-11-01T11:50:33.687Z,63.03
2023-11-01T11:53:04.173Z,63.16
2023-11-01T11:55:43.892Z,62.41
2023-11-01T11:58:12.621Z,61.94
2023-11-01T12:00:47.581Z,61.34
2023-11-01T12:03:26.441Z,62.13
2023-11-01T12:06:02.012Z,61.47
2023-11-01T12:08:41.841Z,62.05
2023-11-01T12:11:12.190Z,62.22
2023-11-01T12:13:49.320Z,61.95
2023-11-01T12:16:28.517Z,61.67
2023-11-01T12:19:11.305Z,62.01
2023-11-01T12:21:44.015Z,62.28
2023-11-01T12:24:16.457Z,62.00
2023-11-01T12:26:58.248Z,62.67
2023-11-01T12:29:33.101Z,62.38
2023-11-01T12:32:06.007Z,62.91
2023-11-01T12:34:35.007Z,61.39
2023-11-01T12:37:04.928Z,60.90
2023-11-01T12:39:36.363Z,61.19
2023-11-01T12:42:26.865Z,60.88
2023-11-01T12:44:56.978Z,60.52
2023-11-01T12:47:28.623Z,59.34
2023-11-01T12:49:59.813Z,59.89
2023-11-01T12:52:28.206Z,60.64
2023-11-01T12:54:57.882Z,60.83
2023-11-01T12:57:26.470Z,63.08
2023-11-01T12:59:54.891Z,63.73
2023-11-01T13:02:24.104Z,64.76
2023-11-01T13:04:52.443Z,65.21
2023-11-01T13:07:20.904Z,66.10
2023-11-01T13:09:49.410Z,66.39
2023-11-01T13:12:19.213Z,66.87
2023-11-01T13:14:47.687Z,66.72
2023-11-01T13:17:16.009Z,66.20
2023-11-01T13:19:44.268Z,66.53
2023-11-01T13:22:13.270Z,66.50
2023-11-01T13:24:41.656Z,66.67
2023-11-01T13:27:11.340Z,66.42
2023-11-01T13:29:44.773Z,66.21
2023-11-01T13:32:13.271Z,66.85
2023-11-01T13:34:41.628Z,66.49
2023-11-01T13:37:10.005Z,66.69
2023-11-01T13:39:38.429Z,66.30
2023-11-01T13:42:07.108Z,66.73
2023-11-01T13:44:35.698Z,67.25
2023-11-01T13:47:05.723Z,66.71
2023-11-01T13:49:34.419Z,66.63
2023-11-01T13:52:03.000Z,66.79
2023-11-01T13:54:31.379Z,67.48
2023-11-01T13:56:59.861Z,67.89
2023-11-01T13:59:28.222Z,67.82
2023-11-01T14:01:57.533Z,67.69
2023-11-01T14:04:27.793Z,67.85
2023-11-01T14:06:56.283Z,67.95
2023-11-01T14:09:24.902Z,68.08
2023-11-01T14:11:54.144Z,68.93
2023-11-01T14:14:24.500Z,68.82
2023-11-01T14:16:53.440Z,69.31
2023-11-01T14:19:23.006Z,69.66
2023-11-01T14:21:52.804Z,70.32
2023-11-01T14:24:21.464Z,70.04
2023-11-01T14:26:49.980Z,70.08
2023-11-01T14:29:18.512Z,70.13
2023-11-01T14:31:46.939Z,70.38
2023-11-01T14:34:15.371Z,69.38
2023-11-01T14:36:45.257Z,68.86
2023-11-01T14:39:15.231Z,68.83
2023-11-01T14:41:43.747Z,68.56
2023-11-01T14:44:12.014Z,68.68
2023-11-01T14:46:43.086Z,68.32
2023-11-01T14:49:11.850Z,68.30
2023-11-01T14:51:43.803Z,68.14
2023-11-01T14:54:12.379Z,67.25
2023-11-01T14:56:42.488Z,68.53
2023-11-01T14:59:11.097Z,70.05
2023-11-01T15:01:41.032Z,70.32
2023-11-01T15:04:10.761Z,71.66
2023-11-01T15:06:39.138Z,72.54
2023-11-01T15:09:07.894Z,73.44
2023-11-01T15:11:38.621Z,74.19
2023-11-01T15:14:08.632Z,74.39
2023-11-01T15:16:37.366Z,74.87
2023-11-01T15:19:06.220Z,75.11
2023-11-01T15:21:35.640Z,75.53
2023-11-01T15:24:04.478Z,76.30
2023-11-01T15:26:35.205Z,76.44
2023-11-01T15:29:05.536Z,75.97
2023-11-01T15:31:39.584Z,76.53
2023-11-01T15:34:09.947Z,75.98
2023-11-01T15:36:39.022Z,74.60
2023-11-01T15:39:07.564Z,73.93
2023-11-01T15:41:35.957Z,73.13
2023-11-01T15:44:04.346Z,73.27
2023-11-01T15:46:34.130Z,72.67
2023-11-01T15:49:03.718Z,72.51
2023-11-01T15:51:32.368Z,72.25
2023-11-01T15:54:00.737Z,72.45
2023-11-01T15:56:29.352Z,72.08
2023-11-01T15:58:58.035Z,72.47
2023-11-01T16:01:26.389Z,72.67
2023-11-01T16:03:57.116Z,74.49
2023-11-01T16:06:25.638Z,74.00
2023-11-01T16:08:54.980Z,74.63
2023-11-01T16:11:24.006Z,76.67
2023-11-01T16:13:52.308Z,78.50
2023-11-01T16:16:20.670Z,80.02
2023-11-01T16:18:50.026Z,80.71
2023-11-01T16:21:20.139Z,80.79
2023-11-01T16:23:50.432Z,81.08
2023-11-01T16:26:19.021Z,81.38
2023-11-01T16:28:47.764Z,82.04
2023-11-01T16:31:16.581Z,82.38
2023-11-01T16:33:46.206Z,82.73
2023-11-01T16:36:16.151Z,82.79
2023-11-01T16:38:54.483Z,83.36
2023-11-01T16:41:22.912Z,83.09
2023-11-01T16:43:51.258Z,83.60
2023-11-01T16:46:22.096Z,83.82
2023-11-01T16:48:50.501Z,83.60
2023-11-01T16:51:19.027Z,83.38
2023-11-01T16:53:50.665Z,84.00
2023-11-01T16:56:20.305Z,84.53
2023-11-01T16:58:48.742Z,84.60
2023-11-01T17:01:17.840Z,85.64
2023-11-01T17:03:47.942Z,86.02
2023-11-01T17:06:17.980Z,86.60
2023-11-01T17:08:46.806Z,86.68
2023-11-01T17:11:26.835Z,87.17
2023-11-01T17:13:57.544Z,88.17
2023-11-01T17:16:26.244Z,89.03
2023-11-01T17:18:54.623Z,89.44
2023-11-01T17:21:25.395Z,89.17
2023-11-01T17:23:55.105Z,89.61
2023-11-01T17:26:27.514Z,89.77
2023-11-01T17:29:00.855Z,89.75
2023-11-01T17:31:37.815Z,89.92
2023-11-01T17:34:06.545Z,90.28
2023-11-01T17:36:36.876Z,90.78
2023-11-01T17:39:07.606Z,90.85
2023-11-01T17:42:05.604Z,91.70
2023-11-01T17:44:40.515Z,91.77
2023-11-01T17:47:12.684Z,91.89
2023-11-01T17:49:56.607Z,91.71
2023-11-01T17:52:43.624Z,91.92
2023-11-01T17:55:17.793Z,92.07
2023-11-01T17:57:48.562Z,92.37
2023-11-01T18:00:18.014Z,93.28
2023-11-01T18:03:26.241Z,93.17
2023-11-01T18:05:55.662Z,93.82
2023-11-01T18:08:32.451Z,93.85
2023-11-01T18:11:04.472Z,93.54
2023-11-01T18:13:42.005Z,94.49
2023-11-01T18:16:11.838Z,94.78
2023-11-01T18:18:49.457Z,94.38
2023-11-01T18:21:21.570Z,94.30
2023-11-01T18:23:54.262Z,94.49
2023-11-01T18:26:25.798Z,95.09
2023-11-01T18:28:59.492Z,95.63
2023-11-01T18:31:32.742Z,95.69
2023-11-01T18:34:04.141Z,95.43
2023-11-01T18:36:38.396Z,94.91
2023-11-01T18:39:09.829Z,94.89
2023-11-01T18:41:39.869Z,95.11
2023-11-01T18:44:24.402Z,95.16
2023-11-01T18:46:53.856Z,95.27
2023-11-01T18:49:51.110Z,96.13
2023-11-01T18:52:19.818Z,96.98
2023-11-01T18:54:49.337Z,97.29
2023-11-01T18:57:25.385Z,97.58
2023-11-01T18:59:55.757Z,97.77
2023-11-01T19:03:02.362Z,98.21
2023-11-01T19:05:34.278Z,98.12
2023-11-01T19:08:03.517Z,98.02
2023-11-01T19:10:34.569Z,97.10
2023-11-01T19:13:03.483Z,97.29
2023-11-01T19:16:16.882Z,97.36
2023-11-01T19:18:47.978Z,97.07
2023-11-01T19:21:16.386Z,96.95
2023-11-01T19:23:47.206Z,96.42
2023-11-01T19:26:17.355Z,96.25
2023-11-01T19:28:45.569Z,95.73
2023-11-01T19:31:15.231Z,95.29
2023-11-01T19:33:44.479Z,94.87
2023-11-01T19:36:16.147Z,94.10
2023-11-01T19:38:45.411Z,94.23
2023-11-01T19:41:15.217Z,93.62
2023-11-01T19:43:43.607Z,93.32
2023-11-01T19:46:12.652Z,92.94
2023-11-01T19:48:43.248Z,92.23
2023-11-01T19:51:12.052Z,91.75
2023-11-01T19:53:40.771Z,91.11
2023-11-01T19:56:09.015Z,90.93
2023-11-01T19:58:37.435Z,90.58
2023-11-01T20:01:06.068Z,90.28
2023-11-01T20:03:34.454Z,90.31
2023-11-01T20:06:06.138Z,89.57
2023-11-01T20:08:35.332Z,88.87
2023-11-01T20:11:03.537Z,85.57
2023-11-01T20:13:32.814Z,84.59
2023-11-01T20:16:01.142Z,83.72
2023-11-01T20:18:30.614Z,82.91
2023-11-01T20:21:00.161Z,82.55
2023-11-01T20:23:29.786Z,82.46
2023-11-01T20:26:00.340Z,83.02
2023-11-01T20:28:28.771Z,82.97
2023-11-01T20:30:57.476Z,82.92
2023-11-01T20:33:25.865Z,83.56
2023-11-01T20:35:54.201Z,84.20
2023-11-01T20:38:22.492Z,84.52
2023-11-01T20:40:53.470Z,84.94
2023-11-01T20:43:21.916Z,84.97
2023-11-01T20:45:50.103Z,83.67
2023-11-01T20:48:18.417Z,82.93
2023-11-01T20:50:48.749Z,81.52
2023-11-01T20:53:18.123Z,79.10
2023-11-01T20:55:46.567Z,78.97
2023-11-01T20:58:16.567Z,79.42
2023-11-01T21:00:45.950Z,78.54
2023-11-01T21:03:14.309Z,79.19
2023-11-01T21:05:42.524Z,78.50
2023-11-01T21:08:10.754Z,76.58
2023-11-01T21:10:39.222Z,76.98
2023-11-01T21:13:09.088Z,77.40
2023-11-01T21:15:39.793Z,78.24
2023-11-01T21:18:08.489Z,79.55
2023-11-01T21:20:38.525Z,77.65
2023-11-01T21:23:06.858Z,77.36
2023-11-01T21:25:36.710Z,76.20
2023-11-01T21:28:05.290Z,76.89
2023-11-01T21:30:34.236Z,78.39
2023-11-01T21:33:05.749Z,79.66
2023-11-01T21:35:37.101Z,81.21
2023-11-01T21:38:08.171Z,82.00
2023-11-01T21:40:36.588Z,81.70
2023-11-01T21:43:06.003Z,78.40
2023-11-01T21:45:49.846Z,77.72
2023-11-01T21:48:21.287Z,78.85
2023-11-01T21:50:59.330Z,82.04
2023-11-01T21:53:31.139Z,83.30
2023-11-01T21:56:00.963Z,84.00
2023-11-01T21:58:32.193Z,84.35
2023-11-01T22:01:04.873Z,84.44
2023-11-01T22:03:42.296Z,85.21
2023-11-01T22:06:13.396Z,85.32
2023-11-01T22:08:59.311Z,86.80
2023-11-01T22:11:29.372Z,87.29
2023-11-01T22:13:59.085Z,87.21
2023-11-01T22:16:31.831Z,85.84
2023-11-01T22:19:03.154Z,83.68
2023-11-01T22:21:36.409Z,82.05
2023-11-01T22:24:06.525Z,82.37
2023-11-01T22:26:35.550Z,83.49
2023-11-01T22:29:07.303Z,83.18
2023-11-01T22:31:53.216Z,82.53
2023-11-01T22:34:24.660Z,80.48
2023-11-01T22:36:54.016Z,81.17
2023-11-01T22:39:42.481Z,80.26
2023-11-01T22:42:12.396Z,78.23
2023-11-01T22:44:42.733Z,77.91
2023-11-01T22:47:11.499Z,77.60
2023-11-01T22:49:41.193Z,78.30
2023-11-01T22:52:09.891Z,79.53
2023-11-01T22:54:40.014Z,81.20
2023-11-01T22:57:09.430Z,81.93
2023-11-01T22:59:38.766Z,81.01
2023-11-01T23:02:09.349Z,80.81
2023-11-01T23:04:40.649Z,80.96
2023-11-01T23:07:11.693Z,81.27
2023-11-01T23:09:40.542Z,81.28
2023-11-01T23:12:12.057Z,81.35
2023-11-01T23:14:40.300Z,81.56
2023-11-01T23:17:10.988Z,81.81
2023-11-01T23:19:39.631Z,82.43
2023-11-01T23:22:08.093Z,83.34
2023-11-01T23:24:37.981Z,84.99
2023-11-01T23:27:07.449Z,85.07
2023-11-01T23:29:38.935Z,84.86
2023-11-01T23:32:12.976Z,85.40
2023-11-01T23:34:46.681Z,85.42
2023-11-01T23:37:20.337Z,86.57
2023-11-01T23:39:51.695Z,86.89
2023-11-01T23:42:21.872Z,87.00
2023-11-01T23:44:50.496Z,87.54
2023-11-01T23:47:39.086Z,87.68
2023-11-01T23:50:14.236Z,88.35
2023-11-01T23:52:42.582Z,88.98
2023-11-01T23:55:12.335Z,88.98
2023-11-01T23:57:41.322Z,89.56
